Time;durP1;ratioP1;P1;durP2;ratioP2;P2;SDS_P1;SDS_P2;PMS_P1;PMS_P2;Temp;Humidity;BMP_temperature;BMP_pressure;BME280_temperature;BME280_humidity;BME280_pressure;Samples;Min_cycle;Max_cycle;Signal;HPM_P1;HPM_P2
2021/08/11 00:00:23;;;;;;;10.63;5.97;;;16.70;99.90;;;;;;5113739;28;20222;-83
2021/08/11 00:02:49;;;;;;;13.60;7.03;;;16.70;99.90;;;;;;5114961;28;20196;-83
2021/08/11 00:05:15;;;;;;;11.47;6.33;;;16.60;99.90;;;;;;5113400;28;20599;-83
2021/08/11 00:07:41;;;;;;;10.40;6.27;;;16.60;99.90;;;;;;5114293;28;20207;-82
2021/08/11 00:10:07;;;;;;;11.20;5.43;;;16.60;99.90;;;;;;5127114;28;20156;-82
2021/08/11 00:12:33;;;;;;;10.63;5.90;;;16.60;99.90;;;;;;5136502;28;20198;-81
2021/08/11 00:14:59;;;;;;;9.03;6.30;;;16.70;99.90;;;;;;5119462;28;20180;-83
2021/08/11 00:17:25;;;;;;;8.13;5.63;;;16.60;99.90;;;;;;5121113;28;20594;-84
2021/08/11 00:19:50;;;;;;;8.53;6.13;;;16.50;99.90;;;;;;5119464;28;20179;-83
2021/08/11 00:22:16;;;;;;;10.93;6.67;;;16.50;99.90;;;;;;5127024;28;20206;-83
2021/08/11 00:24:42;;;;;;;8.97;6.20;;;16.50;99.90;;;;;;5123240;28;20175;-82
2021/08/11 00:27:08;;;;;;;9.20;6.33;;;16.50;99.90;;;;;;5134443;28;20187;-82
2021/08/11 00:29:34;;;;;;;12.83;6.07;;;16.50;99.90;;;;;;5142493;27;20181;-82
2021/08/11 00:32:00;;;;;;;7.93;5.13;;;16.50;99.90;;;;;;5138197;28;20180;-83
2021/08/11 00:34:27;;;;;;;7.40;5.30;;;16.50;99.90;;;;;;5120151;28;20179;-84
2021/08/11 00:36:53;;;;;;;8.47;4.87;;;16.40;99.90;;;;;;5120189;28;20214;-84
2021/08/11 00:39:19;;;;;;;6.97;5.47;;;16.30;99.90;;;;;;5120098;28;20522;-83
2021/08/11 00:41:45;;;;;;;10.43;5.47;;;16.20;99.90;;;;;;5120630;28;20208;-83
2021/08/11 00:44:12;;;;;;;9.60;5.83;;;16.10;99.90;;;;;;5120257;28;20187;-83
2021/08/11 00:46:45;;;;;;;11.77;6.00;;;16.10;99.90;;;;;;5121801;28;20273;-83
2021/08/11 00:49:14;;;;;;;8.30;5.30;;;16.10;99.90;;;;;;5121623;27;20257;-83
2021/08/11 00:51:40;;;;;;;8.13;5.90;;;16.10;99.90;;;;;;5121317;27;20179;-83
2021/08/11 00:54:07;;;;;;;7.87;5.83;;;16.10;99.90;;;;;;5121063;28;20184;-83
2021/08/11 00:56:36;;;;;;;6.03;5.43;;;16.10;99.90;;;;;;5121287;28;20211;-83
2021/08/11 00:59:03;;;;;;;8.30;5.77;;;16.20;99.90;;;;;;5121057;28;20183;-83
2021/08/11 01:01:32;;;;;;;7.60;5.47;;;16.10;99.90;;;;;;5119146;28;20227;-83
2021/08/11 01:03:59;;;;;;;10.20;5.83;;;16.10;99.90;;;;;;5119280;28;20187;-83
2021/08/11 01:06:25;;;;;;;6.87;5.40;;;16.10;99.90;;;;;;5119412;28;20553;-83
2021/08/11 01:08:53;;;;;;;8.03;5.90;;;16.10;99.90;;;;;;5120624;28;20173;-83
2021/08/11 01:11:21;;;;;;;8.00;5.50;;;16.10;99.90;;;;;;5121001;28;20262;-83
2021/08/11 01:13:47;;;;;;;8.73;5.90;;;16.00;99.90;;;;;;5119415;28;20180;-83
2021/08/11 01:16:12;;;;;;;7.77;5.23;;;16.00;99.90;;;;;;5119128;28;20205;-83
2021/08/11 01:18:38;;;;;;;8.70;6.23;;;16.00;99.90;;;;;;5120235;28;20184;-83
2021/08/11 01:21:34;;;;;;;8.10;5.97;;;15.90;99.90;;;;;;5119223;28;20544;-83
2021/08/11 01:24:26;;;;;;;6.43;5.30;;;15.90;99.90;;;;;;5118896;28;20225;-84
2021/08/11 01:27:14;;;;;;;14.20;6.57;;;15.80;99.90;;;;;;5119176;28;20582;-83
2021/08/11 01:29:58;;;;;;;8.73;6.03;;;15.80;99.90;;;;;;5118561;28;20525;-83
2021/08/11 01:32:58;;;;;;;7.70;5.60;;;15.70;99.90;;;;;;5118378;28;20188;-83
2021/08/11 01:35:37;;;;;;;7.13;5.97;;;15.70;99.90;;;;;;5118317;28;20269;-83
2021/08/11 01:38:09;;;;;;;6.03;5.20;;;15.70;99.90;;;;;;5118688;28;20188;-83
2021/08/11 01:40:36;;;;;;;9.30;5.90;;;15.70;99.90;;;;;;5119753;28;20171;-83
2021/08/11 01:43:05;;;;;;;9.47;5.77;;;15.70;99.90;;;;;;5118233;28;20639;-83
2021/08/11 01:45:40;;;;;;;7.90;5.10;;;15.60;99.90;;;;;;5119391;28;20195;-83
2021/08/11 01:48:21;;;;;;;10.27;6.03;;;15.70;99.90;;;;;;5118746;28;20180;-83
2021/08/11 01:50:49;;;;;;;7.60;5.83;;;15.60;99.90;;;;;;5120049;28;20577;-83
2021/08/11 01:53:20;;;;;;;8.60;6.00;;;15.60;99.90;;;;;;5118198;28;20180;-83
2021/08/11 01:55:55;;;;;;;8.57;6.37;;;15.60;99.90;;;;;;5117938;28;20684;-83
2021/08/11 01:58:24;;;;;;;6.47;5.20;;;15.60;99.90;;;;;;5118232;28;20181;-83
2021/08/11 02:00:51;;;;;;;7.50;5.73;;;15.50;99.90;;;;;;5119060;28;20191;-83
2021/08/11 02:03:24;;;;;;;6.47;5.33;;;15.50;99.90;;;;;;5117654;28;20214;-83
2021/08/11 02:05:52;;;;;;;7.87;5.47;;;15.50;99.90;;;;;;5117619;28;20250;-83
2021/08/11 02:08:20;;;;;;;8.40;5.90;;;15.50;99.90;;;;;;5117741;28;20182;-83
2021/08/11 02:10:47;;;;;;;7.87;5.37;;;15.50;99.90;;;;;;5117777;28;20203;-83
2021/08/11 02:13:15;;;;;;;9.77;5.80;;;15.60;99.90;;;;;;5117340;28;20222;-83
2021/08/11 02:15:40;;;;;;;6.80;5.53;;;15.60;99.90;;;;;;5117544;28;20208;-83
2021/08/11 02:18:06;;;;;;;8.27;6.00;;;15.50;99.90;;;;;;5119032;28;20208;-83
2021/08/11 02:20:32;;;;;;;7.70;4.87;;;15.50;99.90;;;;;;5117302;28;20550;-83
2021/08/11 02:22:58;;;;;;;9.57;5.57;;;15.50;99.90;;;;;;5117543;28;20295;-83
2021/08/11 02:25:24;;;;;;;6.70;4.87;;;15.50;99.90;;;;;;5118685;28;20551;-83
2021/08/11 02:28:14;;;;;;;7.93;5.87;;;15.60;99.90;;;;;;5116984;28;20629;-83
2021/08/11 02:30:49;;;;;;;7.80;5.53;;;15.60;99.90;;;;;;5118650;28;20724;-83
2021/08/11 02:33:47;;;;;;;7.87;5.70;;;15.60;99.90;;;;;;5117350;28;20182;-83
2021/08/11 02:36:22;;;;;;;8.80;5.13;;;15.60;99.90;;;;;;5117122;28;20202;-83
2021/08/11 02:38:51;;;;;;;8.97;5.60;;;15.60;99.90;;;;;;5118361;28;20166;-83
2021/08/11 02:41:26;;;;;;;8.40;5.60;;;15.60;99.90;;;;;;5118287;28;20171;-83
2021/08/11 02:44:06;;;;;;;8.20;5.83;;;15.70;99.90;;;;;;5116136;28;20183;-83
2021/08/11 02:46:33;;;;;;;8.13;5.77;;;15.70;99.90;;;;;;5116293;28;20306;-83
2021/08/11 02:49:01;;;;;;;9.77;5.73;;;15.70;99.90;;;;;;5116654;28;20176;-83
2021/08/11 02:51:30;;;;;;;14.93;5.70;;;15.60;99.90;;;;;;5116856;28;20178;-84
2021/08/11 02:54:00;;;;;;;13.07;5.73;;;15.60;99.90;;;;;;5116281;28;20653;-83
2021/08/11 02:56:26;;;;;;;6.73;5.13;;;15.60;99.90;;;;;;5117711;28;20187;-83
2021/08/11 02:58:52;;;;;;;6.10;5.27;;;15.60;99.90;;;;;;5117164;28;20168;-82
2021/08/11 03:01:19;;;;;;;7.27;5.90;;;15.50;99.90;;;;;;5115301;28;20210;-82
2021/08/11 03:03:46;;;;;;;6.57;5.23;;;15.50;99.90;;;;;;5114942;28;20226;-82
2021/08/11 03:06:12;;;;;;;6.10;5.50;;;15.50;99.90;;;;;;5116168;28;20195;-83
2021/08/11 03:08:38;;;;;;;8.47;5.83;;;15.50;99.90;;;;;;5116160;28;20176;-82
2021/08/11 03:11:04;;;;;;;7.43;5.60;;;15.50;99.90;;;;;;5114627;28;20175;-82
2021/08/11 03:13:30;;;;;;;9.67;5.53;;;15.40;99.90;;;;;;5114647;28;20182;-82
2021/08/11 03:15:56;;;;;;;5.73;5.10;;;15.40;99.90;;;;;;5115663;28;20199;-82
2021/08/11 03:18:22;;;;;;;7.67;5.57;;;15.40;99.90;;;;;;5115680;28;20175;-82
2021/08/11 03:20:48;;;;;;;9.87;6.87;;;15.40;99.90;;;;;;5114515;28;20186;-83
2021/08/11 03:23:14;;;;;;;7.63;5.97;;;15.30;99.90;;;;;;5115305;28;20207;-82
2021/08/11 03:25:41;;;;;;;6.87;5.23;;;15.30;99.90;;;;;;5115167;28;20552;-82
2021/08/11 03:28:08;;;;;;;7.50;5.83;;;15.30;99.90;;;;;;5122890;28;20195;-82
2021/08/11 03:30:36;;;;;;;7.03;6.00;;;15.20;99.90;;;;;;5134629;28;20191;-81
2021/08/11 03:33:02;;;;;;;14.13;5.93;;;15.20;99.90;;;;;;5139500;28;20154;-81
2021/08/11 03:35:28;;;;;;;6.43;5.80;;;15.20;99.90;;;;;;5129434;28;20196;-83
2021/08/11 03:37:54;;;;;;;8.03;5.57;;;15.10;99.90;;;;;;5119059;28;20183;-83
2021/08/11 03:40:21;;;;;;;9.47;5.47;;;15.10;99.90;;;;;;5118967;28;20172;-83
2021/08/11 03:42:47;;;;;;;7.43;5.53;;;15.00;99.90;;;;;;5117578;28;20216;-84
2021/08/11 03:45:12;;;;;;;7.67;6.20;;;15.00;99.90;;;;;;5118302;28;20197;-83
2021/08/11 03:47:42;;;;;;;7.03;5.80;;;15.00;99.90;;;;;;5119674;28;20171;-83
2021/08/11 03:50:13;;;;;;;6.77;5.37;;;14.90;99.90;;;;;;5121747;28;20172;-83
2021/08/11 03:52:39;;;;;;;8.27;5.90;;;14.90;99.90;;;;;;5121341;28;20183;-84
2021/08/11 03:55:06;;;;;;;5.93;5.00;;;14.90;99.90;;;;;;5120677;28;20186;-84
2021/08/11 03:57:32;;;;;;;7.73;5.23;;;14.80;99.90;;;;;;5126179;28;20175;-83
2021/08/11 03:59:58;;;;;;;7.27;5.57;;;14.80;99.90;;;;;;5122000;28;20216;-84
2021/08/11 04:02:24;;;;;;;8.30;5.40;;;14.80;99.90;;;;;;5124095;28;20274;-84
2021/08/11 04:04:49;;;;;;;6.93;5.40;;;14.70;99.90;;;;;;5125630;28;20228;-84
2021/08/11 04:07:16;;;;;;;6.73;5.33;;;14.70;99.90;;;;;;5123217;28;20702;-84
2021/08/11 04:09:41;;;;;;;8.20;5.50;;;14.70;99.90;;;;;;5123670;28;20202;-84
2021/08/11 04:12:07;;;;;;;5.67;5.10;;;14.70;99.90;;;;;;5121497;28;20180;-84
2021/08/11 04:14:33;;;;;;;8.43;5.67;;;14.70;99.90;;;;;;5121857;28;20623;-84
2021/08/11 04:16:58;;;;;;;6.23;5.63;;;14.70;99.90;;;;;;5124424;27;20195;-84
2021/08/11 04:19:24;;;;;;;9.43;5.47;;;14.70;99.90;;;;;;5122294;28;20171;-84
2021/08/11 04:21:50;;;;;;;6.83;5.50;;;14.70;99.90;;;;;;5119585;28;20687;-84
2021/08/11 04:24:15;;;;;;;6.93;5.60;;;14.70;99.90;;;;;;5120835;28;20623;-84
2021/08/11 04:26:41;;;;;;;9.13;6.10;;;14.70;99.90;;;;;;5118427;28;20202;-84
2021/08/11 04:29:07;;;;;;;7.13;5.73;;;14.70;99.90;;;;;;5119958;28;20231;-84
2021/08/11 04:31:32;;;;;;;6.73;5.80;;;14.70;99.90;;;;;;5118482;28;20246;-84
2021/08/11 04:33:58;;;;;;;8.80;5.67;;;14.60;99.90;;;;;;5118343;28;20171;-83
2021/08/11 04:36:24;;;;;;;7.43;6.43;;;14.70;99.90;;;;;;5118609;28;20191;-84
2021/08/11 04:38:49;;;;;;;8.93;6.00;;;14.70;99.90;;;;;;5118725;28;20266;-84
2021/08/11 04:41:15;;;;;;;7.13;5.67;;;14.70;99.90;;;;;;5118504;28;20175;-84
2021/08/11 04:43:41;;;;;;;7.50;5.40;;;14.70;99.90;;;;;;5119165;27;20202;-84
2021/08/11 04:46:07;;;;;;;6.73;5.50;;;14.70;99.90;;;;;;5117996;28;20195;-84
2021/08/11 04:48:33;;;;;;;8.53;5.70;;;14.80;99.90;;;;;;5119521;28;20556;-84
2021/08/11 04:50:59;;;;;;;9.57;5.40;;;14.70;99.90;;;;;;5118464;28;20176;-84
2021/08/11 04:53:24;;;;;;;7.27;5.87;;;14.70;99.90;;;;;;5117841;28;20175;-84
2021/08/11 04:55:50;;;;;;;7.70;5.60;;;14.70;99.90;;;;;;5117997;28;20199;-84
2021/08/11 04:58:16;;;;;;;8.23;6.03;;;14.70;99.90;;;;;;5118279;28;20171;-84
2021/08/11 05:00:42;;;;;;;10.00;6.43;;;14.70;99.90;;;;;;5119124;28;20596;-84
2021/08/11 05:03:08;;;;;;;7.63;5.67;;;14.70;99.90;;;;;;5117615;28;20199;-84
2021/08/11 05:05:33;;;;;;;10.07;5.97;;;14.80;99.90;;;;;;5117668;28;20272;-84
2021/08/11 05:07:59;;;;;;;8.30;6.03;;;14.80;99.90;;;;;;5118881;28;20220;-84
2021/08/11 05:10:25;;;;;;;9.43;5.50;;;14.80;99.90;;;;;;5117976;28;20176;-84
2021/08/11 05:12:51;;;;;;;6.50;5.63;;;14.80;99.90;;;;;;5117369;28;20278;-84
2021/08/11 05:15:16;;;;;;;8.57;5.93;;;14.80;99.90;;;;;;5117927;28;20195;-84
2021/08/11 05:17:42;;;;;;;10.00;5.90;;;14.80;99.90;;;;;;5117680;28;20180;-84
2021/08/11 05:20:08;;;;;;;10.23;6.43;;;14.80;99.90;;;;;;5117028;28;20172;-84
2021/08/11 05:22:34;;;;;;;6.93;5.60;;;14.80;99.90;;;;;;5118823;27;20672;-84
2021/08/11 05:25:00;;;;;;;6.73;5.23;;;14.90;99.90;;;;;;5117252;28;20178;-84
2021/08/11 05:27:27;;;;;;;5.90;5.00;;;14.90;99.90;;;;;;5117579;28;20183;-84
2021/08/11 05:29:52;;;;;;;12.10;5.73;;;14.90;99.90;;;;;;5117409;28;20175;-84
2021/08/11 05:32:18;;;;;;;6.50;5.60;;;15.00;99.90;;;;;;5116870;28;20186;-84
2021/08/11 05:34:44;;;;;;;6.93;5.37;;;15.00;99.90;;;;;;5117430;28;20245;-84
2021/08/11 05:37:10;;;;;;;10.83;5.20;;;15.00;99.90;;;;;;5118608;27;20287;-84
2021/08/11 05:39:36;;;;;;;9.10;5.60;;;15.10;99.90;;;;;;5116834;28;20660;-84
2021/08/11 05:42:03;;;;;;;8.10;5.47;;;15.10;99.90;;;;;;5116849;28;20204;-84
2021/08/11 05:44:28;;;;;;;10.07;5.67;;;15.20;99.90;;;;;;5117277;28;20179;-84
2021/08/11 05:46:54;;;;;;;11.53;5.77;;;15.20;99.90;;;;;;5118096;28;20195;-84
2021/08/11 05:49:20;;;;;;;8.67;5.00;;;15.20;99.90;;;;;;5116622;28;20181;-84
2021/08/11 05:51:45;;;;;;;8.10;5.70;;;15.30;99.90;;;;;;5116682;28;20225;-84
2021/08/11 05:54:11;;;;;;;6.17;5.00;;;15.40;99.90;;;;;;5117864;28;20231;-84
2021/08/11 05:56:37;;;;;;;8.10;5.27;;;15.40;99.90;;;;;;5117774;28;20248;-84
2021/08/11 05:59:03;;;;;;;6.53;5.17;;;15.40;99.90;;;;;;5116050;28;20540;-83
2021/08/11 06:01:28;;;;;;;6.33;5.23;;;15.40;99.90;;;;;;5116430;28;20192;-84
2021/08/11 06:03:58;;;;;;;6.97;5.37;;;15.50;99.90;;;;;;5116109;28;20256;-84
2021/08/11 06:06:25;;;;;;;6.63;5.13;;;15.60;99.90;;;;;;5116192;28;20195;-84
2021/08/11 06:08:51;;;;;;;6.10;4.63;;;15.70;99.90;;;;;;5115997;28;20239;-84
2021/08/11 06:11:17;;;;;;;4.87;4.37;;;15.80;99.90;;;;;;5117471;28;20214;-84
2021/08/11 06:13:42;;;;;;;5.37;4.33;;;15.90;99.90;;;;;;5115920;28;20180;-84
2021/08/11 06:16:08;;;;;;;6.47;4.33;;;15.90;99.90;;;;;;5115360;28;20625;-84
2021/08/11 06:18:34;;;;;;;6.27;4.73;;;16.00;99.90;;;;;;5114602;28;20184;-84
2021/08/11 06:21:00;;;;;;;8.30;4.53;;;16.00;99.90;;;;;;5115151;28;20190;-84
2021/08/11 06:23:25;;;;;;;6.07;4.37;;;16.10;99.90;;;;;;5114828;28;20207;-84
2021/08/11 06:25:51;;;;;;;6.97;4.50;;;16.20;99.90;;;;;;5114764;28;20264;-84
2021/08/11 06:28:17;;;;;;;6.47;4.93;;;16.20;99.90;;;;;;5113935;28;20180;-84
2021/08/11 06:30:42;;;;;;;6.93;4.73;;;16.40;99.90;;;;;;5119255;28;20176;-83
2021/08/11 06:33:08;;;;;;;6.17;4.40;;;16.40;99.90;;;;;;5131390;28;20163;-86
2021/08/11 06:35:34;;;;;;;6.90;4.57;;;16.40;99.90;;;;;;5140543;28;20204;-85
2021/08/11 06:37:59;;;;;;;5.43;4.50;;;16.50;99.90;;;;;;5132399;28;20249;-84
2021/08/11 06:40:25;;;;;;;5.13;4.40;;;16.60;99.90;;;;;;5117829;28;20176;-84
2021/08/11 06:42:52;;;;;;;7.87;5.10;;;16.70;99.90;;;;;;5115640;28;20246;-84
2021/08/11 06:45:18;;;;;;;7.30;4.90;;;16.70;99.90;;;;;;5117383;28;20195;-84
2021/08/11 06:47:44;;;;;;;8.23;5.13;;;16.90;99.90;;;;;;5116013;28;20179;-84
2021/08/11 06:50:11;;;;;;;8.37;4.83;;;17.00;99.90;;;;;;5116077;28;20642;-85
2021/08/11 06:52:37;;;;;;;6.70;4.80;;;17.00;99.90;;;;;;5115682;28;20266;-85
2021/08/11 06:55:08;;;;;;;6.57;4.60;;;17.20;99.90;;;;;;5117824;28;20207;-85
2021/08/11 06:57:34;;;;;;;7.27;4.30;;;17.30;99.90;;;;;;5116113;28;20246;-85
2021/08/11 07:00:00;;;;;;;8.23;4.97;;;17.40;99.90;;;;;;5115653;28;20179;-84
2021/08/11 07:02:26;;;;;;;7.10;4.30;;;17.50;99.90;;;;;;5116433;28;20207;-84
2021/08/11 07:04:52;;;;;;;16.67;6.63;;;17.60;99.90;;;;;;5118015;28;20175;-84
2021/08/11 07:07:18;;;;;;;7.93;5.47;;;17.70;99.90;;;;;;5115580;28;20181;-84
2021/08/11 07:09:43;;;;;;;8.00;4.63;;;17.80;99.90;;;;;;5115720;28;20184;-84
2021/08/11 07:12:09;;;;;;;7.50;4.87;;;17.90;99.90;;;;;;5115682;28;20184;-84
2021/08/11 07:14:35;;;;;;;8.53;4.43;;;18.00;99.90;;;;;;5117179;28;20230;-84
2021/08/11 07:17:01;;;;;;;7.40;4.13;;;18.10;99.90;;;;;;5115668;28;20291;-84
2021/08/11 07:19:26;;;;;;;5.63;4.03;;;18.20;99.90;;;;;;5115838;28;20176;-84
2021/08/11 07:21:52;;;;;;;7.90;3.97;;;18.30;99.90;;;;;;5117393;28;20177;-84
2021/08/11 07:24:18;;;;;;;5.13;3.83;;;18.40;99.90;;;;;;5118881;28;20176;-84
2021/08/11 07:26:44;;;;;;;5.63;4.00;;;18.50;99.90;;;;;;5115639;28;20288;-84
2021/08/11 07:29:10;;;;;;;5.67;3.73;;;18.50;99.90;;;;;;5115493;28;20228;-84
2021/08/11 07:31:36;;;;;;;5.63;3.83;;;18.70;99.90;;;;;;5119254;28;20181;-84
2021/08/11 07:34:01;;;;;;;4.73;3.87;;;18.70;99.90;;;;;;5119223;28;20272;-84
2021/08/11 07:36:27;;;;;;;4.90;4.00;;;18.90;99.90;;;;;;5119267;28;20200;-84
2021/08/11 07:38:53;;;;;;;7.60;3.97;;;18.90;99.90;;;;;;5120155;28;20272;-84
2021/08/11 07:41:18;;;;;;;4.40;3.60;;;19.10;99.90;;;;;;5120495;28;20307;-84
2021/08/11 07:43:44;;;;;;;4.47;3.67;;;19.30;99.90;;;;;;5120990;28;20208;-84
2021/08/11 07:46:10;;;;;;;5.00;3.60;;;19.40;99.90;;;;;;5119828;28;20225;-84
2021/08/11 07:48:36;;;;;;;4.90;3.33;;;19.60;99.90;;;;;;5121311;28;20254;-84
2021/08/11 07:51:02;;;;;;;3.30;3.00;;;19.70;99.90;;;;;;5119849;28;20182;-84
2021/08/11 07:53:28;;;;;;;5.40;3.73;;;19.90;99.90;;;;;;5121311;28;20263;-84
2021/08/11 07:55:55;;;;;;;4.70;3.20;;;20.10;99.90;;;;;;5119991;28;20247;-84
2021/08/11 07:58:23;;;;;;;4.20;3.60;;;20.20;99.90;;;;;;5120252;28;20181;-83
2021/08/11 08:00:50;;;;;;;5.50;3.70;;;20.40;99.90;;;;;;5119350;28;20200;-84
2021/08/11 08:03:16;;;;;;;4.63;3.57;;;20.60;99.90;;;;;;5119637;28;20209;-84
2021/08/11 08:05:42;;;;;;;4.90;3.80;;;20.70;99.90;;;;;;5119681;28;20204;-84
2021/08/11 08:08:08;;;;;;;4.23;3.43;;;20.90;99.90;;;;;;5119507;28;20234;-84
2021/08/11 08:10:33;;;;;;;5.80;3.87;;;21.00;99.90;;;;;;5119170;28;20225;-84
2021/08/11 08:12:59;;;;;;;5.13;3.33;;;21.10;99.90;;;;;;5120916;28;20191;-84
2021/08/11 08:15:28;;;;;;;3.67;3.20;;;21.20;99.90;;;;;;5120097;28;20668;-84
2021/08/11 08:17:53;;;;;;;3.73;3.27;;;21.30;99.90;;;;;;5121146;28;20205;-84
2021/08/11 08:20:19;;;;;;;3.70;3.33;;;21.40;99.90;;;;;;5121205;28;20179;-84
2021/08/11 08:22:47;;;;;;;3.80;3.07;;;21.50;99.90;;;;;;5119533;28;20205;-84
2021/08/11 08:25:13;;;;;;;3.63;3.33;;;21.70;99.90;;;;;;5121333;28;20683;-84
2021/08/11 08:27:39;;;;;;;3.80;3.17;;;21.70;99.90;;;;;;5120183;28;20175;-84
2021/08/11 08:30:07;;;;;;;7.53;3.23;;;21.80;99.90;;;;;;5121771;28;20179;-84
2021/08/11 08:32:32;;;;;;;6.13;3.27;;;22.00;99.90;;;;;;5119145;28;20183;-84
2021/08/11 08:34:58;;;;;;;5.80;3.57;;;22.00;99.90;;;;;;5120506;28;20183;-84
2021/08/11 08:37:32;;;;;;;4.77;3.37;;;22.20;99.90;;;;;;5120156;28;20226;-84
2021/08/11 08:40:01;;;;;;;4.17;3.30;;;22.20;99.90;;;;;;5119492;28;20187;-84
2021/08/11 08:42:26;;;;;;;4.37;3.40;;;22.20;99.90;;;;;;5117317;28;20636;-84
2021/08/11 08:44:52;;;;;;;5.00;3.60;;;22.30;99.90;;;;;;5120526;28;20641;-84
2021/08/11 08:47:20;;;;;;;4.40;3.53;;;22.50;99.90;;;;;;5119022;28;20200;-84
2021/08/11 08:49:47;;;;;;;6.20;3.47;;;22.60;99.90;;;;;;5119116;28;20182;-84
2021/08/11 08:52:17;;;;;;;4.40;3.73;;;22.70;99.90;;;;;;5120843;28;20207;-85
2021/08/11 08:54:44;;;;;;;5.07;3.53;;;22.80;99.90;;;;;;5120453;28;20268;-84
2021/08/11 08:57:09;;;;;;;4.30;3.20;;;22.90;99.90;;;;;;5120996;28;20732;-84
2021/08/11 08:59:35;;;;;;;7.23;3.60;;;23.00;99.90;;;;;;5118928;28;20217;-85
2021/08/11 09:02:01;;;;;;;4.83;2.93;;;23.00;99.90;;;;;;5120968;28;20199;-84
2021/08/11 09:04:26;;;;;;;4.53;3.33;;;23.00;99.90;;;;;;5119900;28;20184;-85
2021/08/11 09:06:52;;;;;;;7.93;3.57;;;23.20;99.90;;;;;;5121456;28;20188;-85
2021/08/11 09:09:18;;;;;;;4.10;3.70;;;23.30;99.90;;;;;;5123138;28;20172;-85
2021/08/11 09:11:44;;;;;;;5.33;3.50;;;23.50;99.90;;;;;;5123207;28;20574;-85
2021/08/11 09:14:22;;;;;;;4.73;3.50;;;23.50;99.90;;;;;;5119878;28;20177;-85
2021/08/11 09:16:50;;;;;;;4.93;3.37;;;23.60;99.90;;;;;;5120923;28;20214;-85
2021/08/11 09:19:17;;;;;;;4.83;3.63;;;23.70;99.90;;;;;;5120949;28;20175;-85
2021/08/11 09:22:11;;;;;;;6.77;4.23;;;23.80;99.90;;;;;;5118932;28;20644;-85
2021/08/11 09:24:38;;;;;;;4.27;3.47;;;23.90;99.90;;;;;;5119148;28;20178;-84
2021/08/11 09:27:25;;;;;;;6.40;3.60;;;23.90;99.90;;;;;;5123668;28;20200;-84
2021/08/11 09:30:09;;;;;;;5.13;4.00;;;23.90;99.90;;;;;;5138280;28;20169;-85
2021/08/11 09:32:47;;;;;;;6.30;3.47;;;24.00;99.90;;;;;;5141566;28;20162;-84
2021/08/11 09:35:18;;;;;;;8.57;3.80;;;24.20;99.90;;;;;;5136512;28;20254;-85
2021/08/11 09:37:44;;;;;;;4.33;3.43;;;24.50;99.90;;;;;;5134938;28;20180;-86
2021/08/11 09:40:13;;;;;;;5.63;3.53;;;24.70;99.90;;;;;;5135701;28;20206;-85
2021/08/11 09:42:39;;;;;;;4.63;3.20;;;24.80;99.90;;;;;;5132157;28;20679;-86
2021/08/11 09:45:09;;;;;;;4.53;3.37;;;24.90;99.90;;;;;;5122837;28;20187;-86
2021/08/11 09:47:36;;;;;;;4.40;3.40;;;24.80;99.90;;;;;;5123896;28;20179;-86
2021/08/11 09:50:11;;;;;;;9.23;3.80;;;24.90;99.90;;;;;;5129232;28;20176;-83
2021/08/11 09:52:53;;;;;;;5.03;3.30;;;25.10;99.90;;;;;;5123396;28;20633;-86
2021/08/11 09:55:19;;;;;;;5.83;3.23;;;25.40;99.90;;;;;;5122777;28;20195;-86
2021/08/11 09:57:46;;;;;;;6.93;3.23;;;25.50;99.90;;;;;;5123090;28;20174;-86
2021/08/11 10:00:15;;;;;;;4.00;2.80;;;25.60;99.90;;;;;;5122524;28;20586;-86
2021/08/11 10:02:42;;;;;;;4.47;3.00;;;25.60;99.90;;;;;;5121582;28;20217;-86
2021/08/11 10:05:12;;;;;;;4.77;3.20;;;25.60;99.90;;;;;;5122360;28;20263;-84
2021/08/11 10:07:38;;;;;;;5.43;3.47;;;25.60;99.90;;;;;;5122773;28;20176;-84
2021/08/11 10:10:08;;;;;;;5.03;3.27;;;25.80;99.90;;;;;;5124099;28;20174;-86
2021/08/11 10:12:35;;;;;;;4.13;3.10;;;25.90;99.90;;;;;;5122542;28;20167;-84
2021/08/11 10:15:06;;;;;;;4.73;3.67;;;26.10;99.90;;;;;;5122545;28;20213;-86
2021/08/11 10:17:34;;;;;;;5.77;3.40;;;26.40;99.90;;;;;;5122931;28;20521;-86
2021/08/11 10:20:05;;;;;;;4.30;3.70;;;26.40;99.90;;;;;;5121859;28;20668;-84
2021/08/11 10:22:32;;;;;;;7.53;3.70;;;26.50;99.90;;;;;;5121663;28;20199;-85
2021/08/11 10:24:58;;;;;;;4.83;3.87;;;26.70;99.90;;;;;;5122202;28;20180;-84
2021/08/11 10:27:24;;;;;;;7.90;3.43;;;26.70;99.90;;;;;;5121352;28;20183;-85
2021/08/11 10:29:54;;;;;;;5.07;3.90;;;26.90;99.90;;;;;;5121130;28;20502;-84
2021/08/11 10:32:22;;;;;;;4.73;3.30;;;27.00;99.90;;;;;;5120516;28;20180;-84
2021/08/11 10:34:48;;;;;;;4.20;3.73;;;27.10;99.90;;;;;;5120455;28;20176;-85
2021/08/11 10:37:14;;;;;;;6.07;3.53;;;27.00;99.90;;;;;;5120780;28;20318;-85
2021/08/11 10:39:40;;;;;;;5.10;4.07;;;26.90;99.90;;;;;;5120919;28;20232;-85
2021/08/11 10:42:16;;;;;;;4.97;3.87;;;26.90;99.90;;;;;;5121271;28;20201;-85
2021/08/11 10:44:46;;;;;;;4.67;3.83;;;26.90;99.90;;;;;;5121606;28;20258;-85
2021/08/11 10:47:13;;;;;;;5.63;3.77;;;27.20;99.90;;;;;;5120875;28;20266;-84
2021/08/11 10:49:56;;;;;;;8.87;3.87;;;27.30;99.90;;;;;;5121880;28;20176;-85
2021/08/11 10:52:22;;;;;;;6.97;4.00;;;27.60;99.90;;;;;;5120044;28;20202;-84
2021/08/11 10:54:56;;;;;;;4.73;3.90;;;27.70;99.90;;;;;;5123373;28;20528;-85
2021/08/11 10:57:35;;;;;;;4.50;3.87;;;27.60;99.90;;;;;;5121135;28;20176;-85
2021/08/11 11:00:25;;;;;;;5.83;3.70;;;27.80;99.90;;;;;;5123604;28;20194;-86
2021/08/11 11:02:52;;;;;;;4.13;3.70;;;27.80;99.90;;;;;;5119259;28;20202;-85
2021/08/11 11:05:21;;;;;;;5.27;4.07;;;27.90;99.90;;;;;;5119863;28;20189;-85
2021/08/11 11:08:08;;;;;;;4.57;3.87;;;28.00;99.90;;;;;;5120193;28;20175;-86
2021/08/11 11:10:35;;;;;;;4.57;3.73;;;27.90;99.90;;;;;;5120809;28;20257;-85
2021/08/11 11:13:01;;;;;;;4.33;3.93;;;27.70;99.90;;;;;;5120824;28;20212;-85
2021/08/11 11:15:39;;;;;;;4.87;4.40;;;27.80;99.90;;;;;;5119214;28;20195;-85
2021/08/11 11:18:10;;;;;;;4.67;4.23;;;27.80;99.90;;;;;;5122007;28;20323;-85
2021/08/11 11:20:36;;;;;;;5.80;3.80;;;27.80;99.90;;;;;;5121883;28;20192;-85
2021/08/11 11:23:03;;;;;;;5.93;4.60;;;27.70;99.90;;;;;;5121204;28;20203;-85
2021/08/11 11:25:59;;;;;;;6.03;4.40;;;27.40;99.90;;;;;;5122575;28;20194;-85
2021/08/11 11:28:59;;;;;;;5.60;4.03;;;27.30;99.90;;;;;;5121506;28;20175;-85
2021/08/11 11:31:28;;;;;;;5.20;4.20;;;27.20;99.90;;;;;;5120676;28;20643;-85
2021/08/11 11:34:14;;;;;;;9.33;4.43;;;27.20;99.90;;;;;;5120100;28;20186;-85
2021/08/11 11:36:41;;;;;;;5.47;4.37;;;27.40;99.90;;;;;;5120195;28;20206;-86
2021/08/11 11:39:09;;;;;;;5.23;4.20;;;27.60;99.90;;;;;;5120179;28;20273;-86
2021/08/11 11:41:36;;;;;;;5.60;4.73;;;27.50;99.90;;;;;;5119711;28;20250;-86
2021/08/11 11:44:43;;;;;;;5.13;4.17;;;27.80;99.90;;;;;;5118456;28;20211;-85
2021/08/11 11:47:15;;;;;;;5.07;4.23;;;28.00;99.90;;;;;;5119195;28;20199;-85
2021/08/11 11:49:41;;;;;;;6.30;4.83;;;28.20;99.90;;;;;;5119406;28;20506;-85
2021/08/11 11:52:18;;;;;;;5.70;4.50;;;28.40;99.90;;;;;;5118163;28;20211;-85
2021/08/11 11:54:46;;;;;;;6.17;4.93;;;28.60;99.90;;;;;;5117303;28;20180;-85
2021/08/11 11:57:16;;;;;;;4.77;4.30;;;28.70;99.90;;;;;;5117348;28;20206;-85
2021/08/11 11:59:46;;;;;;;5.33;4.77;;;28.80;99.90;;;;;;5117221;28;20184;-85
2021/08/11 12:02:23;;;;;;;5.73;5.13;;;28.90;99.90;;;;;;5115798;28;20210;-85
2021/08/11 12:05:03;;;;;;;5.33;4.83;;;28.90;99.90;;;;;;5117602;28;20262;-85
2021/08/11 12:07:31;;;;;;;5.00;4.50;;;29.10;99.90;;;;;;5116649;28;20251;-85
2021/08/11 12:09:57;;;;;;;6.03;5.37;;;29.20;99.90;;;;;;5114230;28;20266;-84
2021/08/11 12:12:23;;;;;;;5.33;4.67;;;29.30;99.90;;;;;;5113877;28;20175;-85
2021/08/11 12:14:49;;;;;;;4.87;4.47;;;29.30;99.90;;;;;;5127854;28;20182;-84
2021/08/11 12:17:31;;;;;;;6.10;4.53;;;29.30;99.90;;;;;;5141390;28;20180;-85
2021/08/11 12:19:57;;;;;;;5.77;4.63;;;29.20;99.90;;;;;;5137487;28;20555;-86
2021/08/11 12:22:33;;;;;;;6.37;4.60;;;29.40;99.90;;;;;;5122320;28;20207;-86
2021/08/11 12:24:59;;;;;;;5.10;4.70;;;29.50;99.90;;;;;;5121600;28;20535;-86
2021/08/11 12:27:26;;;;;;;4.47;4.07;;;29.40;99.90;;;;;;5120682;28;20687;-86
2021/08/11 12:30:14;;;;;;;5.27;4.50;;;29.50;99.90;;;;;;5121010;28;20693;-86
2021/08/11 12:32:40;;;;;;;7.60;4.50;;;29.60;99.90;;;;;;5120730;28;20176;-86
2021/08/11 12:35:06;;;;;;;6.17;4.70;;;29.70;99.90;;;;;;5122833;28;20217;-86
2021/08/11 12:37:45;;;;;;;6.03;4.53;;;29.80;99.90;;;;;;5120869;28;20182;-86
2021/08/11 12:40:26;;;;;;;5.20;4.70;;;29.90;99.90;;;;;;5121213;28;20173;-86
2021/08/11 12:42:56;;;;;;;5.20;4.70;;;30.00;99.90;;;;;;5121554;28;20206;-86
2021/08/11 12:45:22;;;;;;;5.90;4.53;;;29.30;99.90;;;;;;5121171;28;20219;-86
2021/08/11 12:47:48;;;;;;;5.03;4.13;;;28.80;99.90;;;;;;5123980;28;20201;-86
2021/08/11 12:50:21;;;;;;;4.60;4.20;;;28.90;98.70;;;;;;5127263;28;20372;-86
2021/08/11 12:52:57;;;;;;;4.80;4.40;;;29.20;98.70;;;;;;5124466;28;20199;-86